Aviation Digital Data Service (ADDS)

Output produced by METARs form (1216 UTC 15 November 2018)
found at http://www.aviationweather.gov/metar/data/
 
MGGT 151100Z 1512/1612 36020KT 9999 SCT016 TX22/1520Z TN14/1512Z 
     BECMG 1520/1522 36020G30KT SCT018 
     BECMG 1604/1606 36020KT SCT016 
     BECMG 1605/1607 SCT014
       
MGPB 151100Z 1512/1612 27010KT 9999 BKN016 OVC080 TX25/1520Z TN21/1512Z 
     TEMPO 1512/1612 8000 RADZ 
     BECMG 1517/1519 SCT018 
     BECMG 1602/1604 BKN014 
     BECMG 1606/1608 BKN012
       
MGSJ 151100Z 1512/1612 00000KT CAVOK TX32/1520Z TN22/1512Z 
     BECMG 1516/1518 18008KT 
     TEMPO 1518/1524 8000 NSC 
     BECMG 1600/1602 00000KT 
     BECMG 1602/1604 CAVOK